createdAt,value
2019-05-29T00:02:18.386Z,4.33
2019-05-29T00:05:22.653Z,5.10
2019-05-29T00:08:26.659Z,4.83
2019-05-29T00:11:30.597Z,6.30
2019-05-29T00:14:34.558Z,7.10
2019-05-29T00:17:38.569Z,6.53
2019-05-29T00:20:42.594Z,6.00
2019-05-29T00:23:46.889Z,6.20
2019-05-29T00:26:50.888Z,5.20
2019-05-29T00:29:55.557Z,5.77
2019-05-29T00:32:59.874Z,5.20
2019-05-29T00:36:04.196Z,5.70
2019-05-29T00:39:08.745Z,5.70
2019-05-29T00:42:13.251Z,6.50
2019-05-29T00:45:19.473Z,6.87
2019-05-29T00:48:23.749Z,6.13
2019-05-29T00:51:27.761Z,5.80
2019-05-29T00:54:32.380Z,6.40
2019-05-29T00:57:36.600Z,6.10
2019-05-29T01:00:40.630Z,6.00
2019-05-29T01:03:44.660Z,5.80
2019-05-29T01:06:49.268Z,6.00
2019-05-29T01:09:53.214Z,6.03
2019-05-29T01:12:57.809Z,5.90
2019-05-29T01:16:01.957Z,6.40
2019-05-29T01:19:23.837Z,5.47
2019-05-29T01:22:27.854Z,6.53
2019-05-29T01:25:31.941Z,6.83
2019-05-29T01:28:36.119Z,6.83
2019-05-29T01:31:40.063Z,6.70
2019-05-29T01:34:44.015Z,6.90
2019-05-29T01:37:48.163Z,5.90
2019-05-29T01:40:52.364Z,6.77
2019-05-29T01:43:56.652Z,6.53
2019-05-29T01:47:01.025Z,5.57
2019-05-29T01:50:05.778Z,5.67
2019-05-29T01:53:10.083Z,5.40
2019-05-29T01:56:15.474Z,5.20
2019-05-29T01:59:20.161Z,5.30
2019-05-29T02:02:24.387Z,6.10
2019-05-29T02:05:28.604Z,6.47
2019-05-29T02:08:32.800Z,6.90
2019-05-29T02:11:37.094Z,6.93
2019-05-29T02:14:41.353Z,7.00
2019-05-29T02:17:45.607Z,7.03
2019-05-29T02:20:49.921Z,7.57
2019-05-29T02:23:54.129Z,7.30
2019-05-29T02:26:58.551Z,7.73
2019-05-29T02:30:02.680Z,8.30
2019-05-29T02:33:06.718Z,8.10
2019-05-29T02:36:11.008Z,7.67
2019-05-29T02:39:15.519Z,8.87
2019-05-29T02:42:20.972Z,8.40
2019-05-29T02:45:49.256Z,9.73
2019-05-29T02:48:31.797Z,9.43
2019-05-29T02:51:35.885Z,9.20
2019-05-29T02:54:39.901Z,9.97
2019-05-29T02:57:44.153Z,9.80
2019-05-29T03:00:52.740Z,10.43
2019-05-29T03:03:57.128Z,10.03
2019-05-29T03:07:01.402Z,10.57
2019-05-29T03:10:06.449Z,9.80
2019-05-29T03:13:10.793Z,10.03
2019-05-29T03:16:15.001Z,10.17
2019-05-29T03:19:19.004Z,9.87
2019-05-29T03:22:24.131Z,9.67
2019-05-29T03:25:28.454Z,9.87
2019-05-29T03:28:34.800Z,11.23
2019-05-29T03:31:46.577Z,10.93
2019-05-29T03:34:46.742Z,10.63
2019-05-29T03:37:50.471Z,11.07
2019-05-29T03:40:54.857Z,10.40
2019-05-29T03:43:58.730Z,10.53
2019-05-29T03:47:02.770Z,10.53
2019-05-29T03:50:07.255Z,11.30
2019-05-29T03:53:11.588Z,10.97
2019-05-29T03:56:16.205Z,10.97
2019-05-29T03:59:20.729Z,10.57
2019-05-29T04:02:24.757Z,10.47
2019-05-29T04:05:29.141Z,10.67
2019-05-29T04:08:35.528Z,10.97
2019-05-29T04:11:40.479Z,10.40
2019-05-29T04:14:44.752Z,9.97
2019-05-29T04:17:49.319Z,10.37
2019-05-29T04:20:53.504Z,9.73
2019-05-29T04:24:00.294Z,10.23
2019-05-29T04:27:05.109Z,9.80
2019-05-29T04:30:09.936Z,9.57
2019-05-29T04:33:13.884Z,10.00
2019-05-29T04:36:18.143Z,10.40
2019-05-29T04:39:22.072Z,10.20
2019-05-29T04:42:26.017Z,10.67
2019-05-29T04:45:30.888Z,10.47
2019-05-29T04:48:36.142Z,10.33
2019-05-29T04:51:40.680Z,10.03
2019-05-29T04:54:44.888Z,10.10
2019-05-29T04:57:50.905Z,10.43
2019-05-29T05:00:59.050Z,9.60
2019-05-29T05:04:01.417Z,9.53
2019-05-29T05:07:05.761Z,8.63
2019-05-29T05:10:10.294Z,8.10
2019-05-29T05:13:14.241Z,7.90
2019-05-29T05:16:18.532Z,8.17
2019-05-29T05:19:22.461Z,7.63
2019-05-29T05:22:26.506Z,6.87
2019-05-29T05:25:34.403Z,6.97
2019-05-29T05:28:38.640Z,6.77
2019-05-29T05:31:43.023Z,7.37
2019-05-29T05:34:47.107Z,7.80
2019-05-29T05:37:51.267Z,6.80
2019-05-29T05:40:55.245Z,8.00
2019-05-29T05:43:59.441Z,9.70
2019-05-29T05:47:03.419Z,8.47
2019-05-29T05:50:07.770Z,9.60
2019-05-29T05:53:11.847Z,9.47
2019-05-29T05:56:15.825Z,9.07
2019-05-29T05:59:19.949Z,10.30
2019-05-29T06:02:24.371Z,10.13
2019-05-29T06:05:28.432Z,9.80
2019-05-29T06:08:33.970Z,9.77
2019-05-29T06:11:38.336Z,10.60
2019-05-29T06:14:42.828Z,9.47
2019-05-29T06:18:10.194Z,9.30
2019-05-29T06:20:53.424Z,9.17
2019-05-29T06:23:57.618Z,9.20
2019-05-29T06:27:01.571Z,8.67
2019-05-29T06:30:06.272Z,7.90
2019-05-29T06:33:10.693Z,7.60
2019-05-29T06:36:15.140Z,7.23
2019-05-29T06:39:19.178Z,7.47
2019-05-29T06:42:23.712Z,7.37
2019-05-29T06:45:32.291Z,6.53
2019-05-29T06:48:44.828Z,6.80
2019-05-29T06:51:43.461Z,7.03
2019-05-29T06:54:48.205Z,6.93
2019-05-29T06:57:52.172Z,7.43
2019-05-29T07:00:56.565Z,7.60
2019-05-29T07:04:11.416Z,7.43
2019-05-29T07:07:06.575Z,7.03
2019-05-29T07:10:11.153Z,6.63
2019-05-29T07:13:15.670Z,7.50
2019-05-29T07:16:19.929Z,7.17
2019-05-29T07:19:32.773Z,6.57
2019-05-29T07:22:29.889Z,6.17
2019-05-29T07:25:34.120Z,6.90
2019-05-29T07:28:55.482Z,6.27
2019-05-29T07:31:45.035Z,7.30
2019-05-29T07:35:01.886Z,6.40
2019-05-29T07:37:55.091Z,6.50
2019-05-29T07:40:59.034Z,6.37
2019-05-29T07:44:03.733Z,6.53
2019-05-29T07:47:09.989Z,6.47
2019-05-29T07:50:13.757Z,5.97
2019-05-29T07:53:17.877Z,6.20
2019-05-29T07:56:23.299Z,5.90
2019-05-29T07:59:28.693Z,5.60
2019-05-29T08:02:33.189Z,5.40
2019-05-29T08:05:37.183Z,5.93
2019-05-29T08:08:41.588Z,5.30
2019-05-29T08:11:45.720Z,4.90
2019-05-29T08:14:50.274Z,4.53
2019-05-29T08:17:54.871Z,4.87
2019-05-29T08:20:58.950Z,5.03
2019-05-29T08:24:02.930Z,5.47
2019-05-29T08:27:07.002Z,5.00
2019-05-29T08:30:11.423Z,5.07
2019-05-29T08:33:15.428Z,5.53
2019-05-29T08:36:19.777Z,4.40
2019-05-29T08:39:35.361Z,4.03
2019-05-29T08:42:29.645Z,4.27
2019-05-29T08:45:33.671Z,5.83
2019-05-29T08:48:38.275Z,6.20
2019-05-29T08:51:43.891Z,6.87
2019-05-29T08:54:48.110Z,12.10
2019-05-29T08:57:52.529Z,7.63
2019-05-29T09:00:56.545Z,7.63
2019-05-29T09:04:01.145Z,4.63
2019-05-29T09:07:05.178Z,4.10
2019-05-29T09:10:10.171Z,3.60
2019-05-29T09:13:14.443Z,4.13
2019-05-29T09:16:18.741Z,4.40
2019-05-29T09:19:22.885Z,4.13
2019-05-29T09:22:26.876Z,4.13
2019-05-29T09:25:31.630Z,4.80
2019-05-29T09:28:35.653Z,5.40
2019-05-29T09:31:39.939Z,4.90
2019-05-29T09:34:47.582Z,4.93
2019-05-29T09:37:50.333Z,5.27
2019-05-29T09:40:54.703Z,5.50
2019-05-29T09:44:00.372Z,3.50
2019-05-29T09:47:04.709Z,3.87
2019-05-29T09:50:08.741Z,2.43
2019-05-29T09:53:12.949Z,2.43
2019-05-29T09:56:17.045Z,2.00
2019-05-29T09:59:20.973Z,2.67
2019-05-29T10:02:25.238Z,2.57
2019-05-29T10:05:29.251Z,2.93
2019-05-29T10:08:33.270Z,3.30
2019-05-29T10:11:37.433Z,3.87
2019-05-29T10:14:41.792Z,3.60
2019-05-29T10:17:46.423Z,4.00
2019-05-29T10:20:50.695Z,3.57
2019-05-29T10:23:56.665Z,3.60
2019-05-29T10:27:02.708Z,3.30
2019-05-29T10:30:07.630Z,3.00
2019-05-29T10:33:11.821Z,3.27
2019-05-29T10:36:16.253Z,3.20
2019-05-29T10:39:20.234Z,3.27
2019-05-29T10:42:24.595Z,2.97
2019-05-29T10:45:29.035Z,3.00
2019-05-29T10:48:33.069Z,2.77
2019-05-29T10:51:37.764Z,2.80
2019-05-29T10:54:41.733Z,2.90
2019-05-29T10:57:46.635Z,3.07
2019-05-29T11:00:51.352Z,2.80
2019-05-29T11:03:55.908Z,2.60
2019-05-29T11:07:00.618Z,2.70
2019-05-29T11:10:05.359Z,2.90
2019-05-29T11:13:09.435Z,2.73
2019-05-29T11:16:13.617Z,2.67
2019-05-29T11:19:17.980Z,2.67
2019-05-29T11:22:26.102Z,2.50
2019-05-29T11:25:28.685Z,2.50
2019-05-29T11:28:32.625Z,2.67
2019-05-29T11:31:36.641Z,2.23
2019-05-29T11:34:40.512Z,2.30
2019-05-29T11:37:44.780Z,2.53
2019-05-29T11:40:52.289Z,2.20
2019-05-29T11:43:54.931Z,2.43
2019-05-29T11:47:00.697Z,2.07
2019-05-29T11:50:18.609Z,2.23
2019-05-29T11:53:12.529Z,2.60
2019-05-29T11:56:16.806Z,1.80
2019-05-29T11:59:20.885Z,2.10
2019-05-29T12:02:25.209Z,1.80
2019-05-29T12:05:29.641Z,1.80
2019-05-29T12:08:34.025Z,2.07
2019-05-29T12:11:38.467Z,1.30
2019-05-29T12:14:58.805Z,1.60
2019-05-29T12:17:48.570Z,1.23
2019-05-29T12:20:53.963Z,1.50
2019-05-29T12:23:58.540Z,1.87
2019-05-29T12:27:02.869Z,1.90
2019-05-29T12:30:08.278Z,3.47
2019-05-29T12:33:12.206Z,2.90
2019-05-29T12:36:17.082Z,1.10
2019-05-29T12:39:21.168Z,0.80
2019-05-29T12:42:25.124Z,1.70
2019-05-29T12:45:29.155Z,1.60
2019-05-29T12:48:33.192Z,1.60
2019-05-29T12:51:37.245Z,1.80
2019-05-29T12:54:41.282Z,1.60
2019-05-29T12:57:45.908Z,1.40
2019-05-29T13:00:50.252Z,1.70
2019-05-29T13:03:54.273Z,2.00
2019-05-29T13:06:58.927Z,2.70
2019-05-29T13:10:02.961Z,3.00
2019-05-29T13:13:11.047Z,2.00
2019-05-29T13:16:13.743Z,2.57
2019-05-29T13:19:18.067Z,2.33
2019-05-29T13:22:22.407Z,2.07
2019-05-29T13:25:26.399Z,2.27
2019-05-29T13:28:30.408Z,2.70
2019-05-29T13:31:35.046Z,2.23
2019-05-29T13:34:39.925Z,2.57
2019-05-29T13:37:43.955Z,1.70
2019-05-29T13:40:47.948Z,1.87
2019-05-29T13:43:51.965Z,2.10
2019-05-29T13:46:55.913Z,1.97
2019-05-29T13:50:05.492Z,2.00
2019-05-29T13:53:07.445Z,1.90
2019-05-29T13:56:11.881Z,2.37
2019-05-29T13:59:16.200Z,1.90
2019-05-29T14:02:21.160Z,1.70
2019-05-29T14:05:25.432Z,1.50
2019-05-29T14:08:29.535Z,1.73
2019-05-29T14:11:33.828Z,1.60
2019-05-29T14:14:37.864Z,1.90
2019-05-29T14:17:42.237Z,2.00
2019-05-29T14:20:46.361Z,1.70
2019-05-29T14:23:50.680Z,1.80
2019-05-29T14:26:54.719Z,2.00
2019-05-29T14:30:01.003Z,1.80
2019-05-29T14:33:06.819Z,1.77
2019-05-29T14:36:11.492Z,2.00
2019-05-29T14:39:15.562Z,2.00
2019-05-29T14:42:19.593Z,2.30
2019-05-29T14:45:23.879Z,2.27
2019-05-29T14:48:28.184Z,2.50
2019-05-29T14:51:32.430Z,2.60
2019-05-29T14:54:41.962Z,2.77
2019-05-29T14:57:42.988Z,3.20
2019-05-29T15:00:46.987Z,3.07
2019-05-29T15:03:51.883Z,3.10
2019-05-29T15:06:55.790Z,2.80
2019-05-29T15:10:00.055Z,2.90
2019-05-29T15:13:04.421Z,2.83
2019-05-29T15:16:09.118Z,2.37
2019-05-29T15:19:13.355Z,2.80
2019-05-29T15:22:17.230Z,2.10
2019-05-29T15:25:24.438Z,2.40
2019-05-29T15:28:27.707Z,2.50
2019-05-29T15:31:31.776Z,2.20
2019-05-29T15:34:36.150Z,2.20
2019-05-29T15:37:40.226Z,2.70
2019-05-29T15:40:44.549Z,2.23
2019-05-29T15:43:49.387Z,2.60
2019-05-29T15:46:53.772Z,2.73
2019-05-29T15:49:57.775Z,2.40
2019-05-29T15:53:02.133Z,2.50
2019-05-29T15:56:18.294Z,2.23
2019-05-29T15:59:14.227Z,2.07
2019-05-29T16:02:18.188Z,1.90
2019-05-29T16:05:22.394Z,2.03
2019-05-29T16:08:26.477Z,2.30
2019-05-29T16:11:30.720Z,2.10
2019-05-29T16:14:34.680Z,2.00
2019-05-29T16:17:39.112Z,1.77
2019-05-29T16:20:43.278Z,2.20
2019-05-29T16:23:47.556Z,1.90
2019-05-29T16:26:51.607Z,2.00
2019-05-29T16:29:56.115Z,2.10
2019-05-29T16:33:00.131Z,1.87
2019-05-29T16:36:04.559Z,2.03
2019-05-29T16:39:08.774Z,1.60
2019-05-29T16:42:13.968Z,2.33
2019-05-29T16:45:18.765Z,2.10
2019-05-29T16:48:23.019Z,1.60
2019-05-29T16:51:27.690Z,1.87
2019-05-29T16:54:31.726Z,1.90
2019-05-29T16:57:36.024Z,1.77
2019-05-29T17:00:40.445Z,1.57
2019-05-29T17:03:45.028Z,2.20
2019-05-29T17:06:49.302Z,1.87
2019-05-29T17:09:53.358Z,1.57
2019-05-29T17:12:58.050Z,1.40
2019-05-29T17:16:02.162Z,1.30
2019-05-29T17:19:06.267Z,1.50
2019-05-29T17:22:11.035Z,1.70
2019-05-29T17:25:16.819Z,1.50
2019-05-29T17:28:24.303Z,1.60
2019-05-29T17:31:27.377Z,1.50
2019-05-29T17:34:31.757Z,1.80
2019-05-29T17:37:35.993Z,1.70
2019-05-29T17:40:40.020Z,1.60
2019-05-29T17:43:44.350Z,1.87
2019-05-29T17:46:48.747Z,1.57
2019-05-29T17:49:52.692Z,1.30
2019-05-29T17:52:57.011Z,1.30
2019-05-29T17:56:01.042Z,1.20
2019-05-29T17:59:05.247Z,1.37
2019-05-29T18:02:09.893Z,1.33
2019-05-29T18:05:16.388Z,1.57
2019-05-29T18:08:20.777Z,1.50
2019-05-29T18:11:25.280Z,1.70
2019-05-29T18:14:29.480Z,1.80
2019-05-29T18:17:33.774Z,1.60
2019-05-29T18:20:37.905Z,1.80
2019-05-29T18:23:41.764Z,1.70
2019-05-29T18:26:59.198Z,1.70
2019-05-29T18:30:02.863Z,1.70
2019-05-29T18:33:06.899Z,1.50
2019-05-29T18:36:11.152Z,3.30
2019-05-29T18:39:15.157Z,2.10
2019-05-29T18:42:20.378Z,2.00
2019-05-29T18:45:26.172Z,2.17
2019-05-29T18:48:32.545Z,1.80
2019-05-29T18:51:36.379Z,1.90
2019-05-29T18:54:40.916Z,1.80
2019-05-29T18:57:45.605Z,1.93
2019-05-29T19:00:49.658Z,11.33
2019-05-29T19:03:53.926Z,17.97
2019-05-29T19:06:58.470Z,8.43
2019-05-29T19:10:06.275Z,13.90
2019-05-29T19:13:08.285Z,6.50
2019-05-29T19:16:13.083Z,2.50
2019-05-29T19:19:16.954Z,2.77
2019-05-29T19:22:22.250Z,2.60
2019-05-29T19:25:26.840Z,2.70
2019-05-29T19:28:30.878Z,3.10
2019-05-29T19:31:34.820Z,2.40
2019-05-29T19:34:39.131Z,2.70
2019-05-29T19:37:43.281Z,2.50
2019-05-29T19:40:47.400Z,2.40
2019-05-29T19:43:51.510Z,2.90
2019-05-29T19:46:55.530Z,2.43
2019-05-29T19:49:59.540Z,2.80
2019-05-29T19:53:03.502Z,2.90
2019-05-29T19:56:07.664Z,2.73
2019-05-29T19:59:11.786Z,2.80
2019-05-29T20:02:15.875Z,2.93
2019-05-29T20:05:19.958Z,3.40
2019-05-29T20:08:23.971Z,2.90
2019-05-29T20:11:29.358Z,3.03
2019-05-29T20:14:34.086Z,3.00
2019-05-29T20:17:38.726Z,3.23
2019-05-29T20:20:43.280Z,3.00
2019-05-29T20:23:47.604Z,3.20
2019-05-29T20:26:51.627Z,3.03
2019-05-29T20:29:56.247Z,2.90
2019-05-29T20:33:00.162Z,3.10
2019-05-29T20:36:04.446Z,2.53
2019-05-29T20:39:08.681Z,2.87
2019-05-29T20:42:12.711Z,2.80
2019-05-29T20:45:17.852Z,2.73
2019-05-29T20:48:22.557Z,3.00
2019-05-29T20:51:26.590Z,3.40
2019-05-29T20:54:31.596Z,3.40
2019-05-29T20:57:35.926Z,3.63
2019-05-29T21:00:40.480Z,3.30
2019-05-29T21:03:44.796Z,3.43
2019-05-29T21:06:48.817Z,3.53
2019-05-29T21:09:53.021Z,3.43
2019-05-29T21:12:57.329Z,3.63
2019-05-29T21:16:01.342Z,3.03
2019-05-29T21:19:05.364Z,3.30
2019-05-29T21:22:09.388Z,2.87
2019-05-29T21:25:18.572Z,3.20
2019-05-29T21:28:20.345Z,2.90
2019-05-29T21:31:24.598Z,2.90
2019-05-29T21:34:29.116Z,2.77
2019-05-29T21:37:33.361Z,2.60
2019-05-29T21:40:38.284Z,2.90
2019-05-29T21:43:42.746Z,2.90
2019-05-29T21:46:47.275Z,3.10
2019-05-29T21:49:51.583Z,2.90
2019-05-29T21:52:55.633Z,3.37
2019-05-29T21:55:59.920Z,3.20
2019-05-29T21:59:04.506Z,3.17
2019-05-29T22:02:09.108Z,3.30
2019-05-29T22:05:14.239Z,3.63
2019-05-29T22:08:18.957Z,3.77
2019-05-29T22:11:23.036Z,3.80
2019-05-29T22:14:27.380Z,3.47
2019-05-29T22:17:31.342Z,3.63
2019-05-29T22:20:35.461Z,3.57
2019-05-29T22:23:39.741Z,3.53
2019-05-29T22:26:43.879Z,3.30
2019-05-29T22:29:48.300Z,3.00
2019-05-29T22:32:53.287Z,3.40
2019-05-29T22:35:57.550Z,3.70
2019-05-29T22:39:01.867Z,3.20
2019-05-29T22:42:06.020Z,2.73
2019-05-29T22:45:11.420Z,3.03
2019-05-29T22:48:15.426Z,3.00
2019-05-29T22:51:19.490Z,3.30
2019-05-29T22:54:23.462Z,3.30
2019-05-29T22:57:28.015Z,2.83
2019-05-29T23:00:32.029Z,3.27
2019-05-29T23:03:36.651Z,3.10
2019-05-29T23:06:40.663Z,3.30
2019-05-29T23:09:44.668Z,3.23
2019-05-29T23:12:48.608Z,3.10
2019-05-29T23:15:54.401Z,3.20
2019-05-29T23:18:58.754Z,3.33
2019-05-29T23:22:02.939Z,3.40
2019-05-29T23:25:07.465Z,3.23
2019-05-29T23:28:11.480Z,3.70
2019-05-29T23:31:15.421Z,3.80
2019-05-29T23:34:19.672Z,3.83
2019-05-29T23:37:23.676Z,3.97
2019-05-29T23:40:27.700Z,4.60
2019-05-29T23:43:31.785Z,9.53
2019-05-29T23:46:36.144Z,24.07
2019-05-29T23:49:40.843Z,18.90
2019-05-29T23:52:44.872Z,3.70
2019-05-29T23:55:49.114Z,3.30
2019-05-29T23:58:53.627Z,14.70
